sensor_id;sensor_type;location;lat;lon;timestamp;P1;durP1;ratioP1;P2;durP2;ratioP2
54947;SDS011;41113;41.882;12.530;2023-01-10T00:00:21;22.67;;;8.90;;
54947;SDS011;41113;41.882;12.530;2023-01-10T00:02:47;28.00;;;9.65;;
54947;SDS011;41113;41.882;12.530;2023-01-10T00:05:12;31.77;;;10.65;;
54947;SDS011;41113;41.882;12.530;2023-01-10T00:07:38;31.98;;;10.07;;
54947;SDS011;41113;41.882;12.530;2023-01-10T00:10:03;32.67;;;9.90;;
54947;SDS011;41113;41.882;12.530;2023-01-10T00:12:29;29.50;;;9.90;;
54947;SDS011;41113;41.882;12.530;2023-01-10T00:15:13;28.65;;;10.18;;
54947;SDS011;41113;41.882;12.530;2023-01-10T00:17:38;28.80;;;10.98;;
54947;SDS011;41113;41.882;12.530;2023-01-10T00:20:04;24.05;;;10.52;;
54947;SDS011;41113;41.882;12.530;2023-01-10T00:22:30;33.80;;;12.45;;
54947;SDS011;41113;41.882;12.530;2023-01-10T00:24:55;27.67;;;12.07;;
54947;SDS011;41113;41.882;12.530;2023-01-10T00:27:21;34.85;;;12.15;;
54947;SDS011;41113;41.882;12.530;2023-01-10T00:29:47;34.00;;;12.45;;
54947;SDS011;41113;41.882;12.530;2023-01-10T00:32:15;28.48;;;11.63;;
54947;SDS011;41113;41.882;12.530;2023-01-10T00:34:40;31.00;;;12.25;;
54947;SDS011;41113;41.882;12.530;2023-01-10T00:37:05;22.23;;;10.30;;
54947;SDS011;41113;41.882;12.530;2023-01-10T00:39:31;26.85;;;11.10;;
54947;SDS011;41113;41.882;12.530;2023-01-10T00:41:56;30.17;;;11.82;;
54947;SDS011;41113;41.882;12.530;2023-01-10T00:44:40;37.72;;;13.43;;
54947;SDS011;41113;41.882;12.530;2023-01-10T00:47:06;30.02;;;13.30;;
54947;SDS011;41113;41.882;12.530;2023-01-10T00:49:31;34.10;;;12.85;;
54947;SDS011;41113;41.882;12.530;2023-01-10T00:51:57;30.27;;;12.82;;
54947;SDS011;41113;41.882;12.530;2023-01-10T00:54:23;28.45;;;12.90;;
54947;SDS011;41113;41.882;12.530;2023-01-10T00:56:50;26.00;;;12.95;;
54947;SDS011;41113;41.882;12.530;2023-01-10T00:59:15;26.98;;;12.82;;
54947;SDS011;41113;41.882;12.530;2023-01-10T01:01:41;27.60;;;12.73;;
54947;SDS011;41113;41.882;12.530;2023-01-10T01:04:06;26.00;;;11.02;;
54947;SDS011;41113;41.882;12.530;2023-01-10T01:06:32;25.70;;;10.68;;
54947;SDS011;41113;41.882;12.530;2023-01-10T01:08:57;21.27;;;10.27;;
54947;SDS011;41113;41.882;12.530;2023-01-10T01:11:23;23.75;;;11.60;;
54947;SDS011;41113;41.882;12.530;2023-01-10T01:13:49;25.50;;;11.40;;
54947;SDS011;41113;41.882;12.530;2023-01-10T01:16:15;31.30;;;13.20;;
54947;SDS011;41113;41.882;12.530;2023-01-10T01:18:41;28.92;;;12.60;;
54947;SDS011;41113;41.882;12.530;2023-01-10T01:21:06;28.95;;;13.23;;
54947;SDS011;41113;41.882;12.530;2023-01-10T01:23:32;22.50;;;11.20;;
54947;SDS011;41113;41.882;12.530;2023-01-10T01:25:58;24.52;;;11.60;;
54947;SDS011;41113;41.882;12.530;2023-01-10T01:28:24;22.73;;;10.57;;
54947;SDS011;41113;41.882;12.530;2023-01-10T01:30:50;31.23;;;11.93;;
54947;SDS011;41113;41.882;12.530;2023-01-10T01:33:15;25.48;;;10.75;;
54947;SDS011;41113;41.882;12.530;2023-01-10T01:35:42;23.42;;;9.77;;
54947;SDS011;41113;41.882;12.530;2023-01-10T01:38:08;25.38;;;11.30;;
54947;SDS011;41113;41.882;12.530;2023-01-10T01:40:34;34.10;;;11.75;;
54947;SDS011;41113;41.882;12.530;2023-01-10T01:43:02;30.92;;;11.88;;
54947;SDS011;41113;41.882;12.530;2023-01-10T01:45:35;27.75;;;10.57;;
54947;SDS011;41113;41.882;12.530;2023-01-10T01:50:45;37.63;;;12.52;;
54947;SDS011;41113;41.882;12.530;2023-01-10T01:53:19;31.45;;;12.02;;
54947;SDS011;41113;41.882;12.530;2023-01-10T01:55:50;28.65;;;12.10;;
54947;SDS011;41113;41.882;12.530;2023-01-10T01:58:19;33.40;;;12.75;;
54947;SDS011;41113;41.882;12.530;2023-01-10T02:00:54;35.53;;;13.15;;
54947;SDS011;41113;41.882;12.530;2023-01-10T02:03:22;33.35;;;12.52;;
54947;SDS011;41113;41.882;12.530;2023-01-10T02:05:48;24.48;;;11.63;;
54947;SDS011;41113;41.882;12.530;2023-01-10T02:08:14;28.83;;;12.20;;
54947;SDS011;41113;41.882;12.530;2023-01-10T02:10:44;25.83;;;11.23;;
54947;SDS011;41113;41.882;12.530;2023-01-10T02:13:17;26.48;;;10.65;;
54947;SDS011;41113;41.882;12.530;2023-01-10T02:15:44;24.10;;;9.65;;
54947;SDS011;41113;41.882;12.530;2023-01-10T02:18:10;24.13;;;10.48;;
54947;SDS011;41113;41.882;12.530;2023-01-10T02:20:50;19.23;;;9.13;;
54947;SDS011;41113;41.882;12.530;2023-01-10T02:34:59;19.52;;;8.88;;
54947;SDS011;41113;41.882;12.530;2023-01-10T02:37:33;24.80;;;10.15;;
54947;SDS011;41113;41.882;12.530;2023-01-10T02:41:04;25.17;;;10.63;;
54947;SDS011;41113;41.882;12.530;2023-01-10T02:43:22;19.63;;;9.45;;
54947;SDS011;41113;41.882;12.530;2023-01-10T02:46:06;19.38;;;8.70;;
54947;SDS011;41113;41.882;12.530;2023-01-10T02:48:36;17.67;;;8.35;;
54947;SDS011;41113;41.882;12.530;2023-01-10T02:51:21;18.35;;;8.38;;
54947;SDS011;41113;41.882;12.530;2023-01-10T02:53:59;19.48;;;7.93;;
54947;SDS011;41113;41.882;12.530;2023-01-10T02:56:37;21.40;;;7.85;;
54947;SDS011;41113;41.882;12.530;2023-01-10T03:02:05;23.33;;;7.35;;
54947;SDS011;41113;41.882;12.530;2023-01-10T03:07:10;17.85;;;6.05;;
54947;SDS011;41113;41.882;12.530;2023-01-10T03:09:48;26.63;;;6.57;;
54947;SDS011;41113;41.882;12.530;2023-01-10T03:12:21;20.15;;;6.03;;
54947;SDS011;41113;41.882;12.530;2023-01-10T03:14:52;19.13;;;5.22;;
54947;SDS011;41113;41.882;12.530;2023-01-10T03:17:20;24.98;;;6.57;;
54947;SDS011;41113;41.882;12.530;2023-01-10T03:19:53;22.67;;;6.38;;
54947;SDS011;41113;41.882;12.530;2023-01-10T03:22:24;20.70;;;6.82;;
54947;SDS011;41113;41.882;12.530;2023-01-10T03:24:53;23.35;;;7.82;;
54947;SDS011;41113;41.882;12.530;2023-01-10T03:27:29;21.67;;;8.27;;
54947;SDS011;41113;41.882;12.530;2023-01-10T03:30:12;23.77;;;9.35;;
54947;SDS011;41113;41.882;12.530;2023-01-10T03:32:49;24.85;;;9.35;;
54947;SDS011;41113;41.882;12.530;2023-01-10T03:35:14;26.90;;;9.35;;
54947;SDS011;41113;41.882;12.530;2023-01-10T03:38:03;23.27;;;9.13;;
54947;SDS011;41113;41.882;12.530;2023-01-10T03:40:41;20.35;;;8.70;;
54947;SDS011;41113;41.882;12.530;2023-01-10T03:43:36;23.90;;;7.35;;
54947;SDS011;41113;41.882;12.530;2023-01-10T03:46:29;18.55;;;7.47;;
54947;SDS011;41113;41.882;12.530;2023-01-10T03:49:01;18.25;;;7.10;;
54947;SDS011;41113;41.882;12.530;2023-01-10T03:51:28;17.90;;;6.57;;
54947;SDS011;41113;41.882;12.530;2023-01-10T03:53:58;16.02;;;6.63;;
54947;SDS011;41113;41.882;12.530;2023-01-10T03:56:25;21.95;;;7.35;;
54947;SDS011;41113;41.882;12.530;2023-01-10T03:58:50;21.67;;;6.70;;
54947;SDS011;41113;41.882;12.530;2023-01-10T04:01:16;21.52;;;7.05;;
54947;SDS011;41113;41.882;12.530;2023-01-10T04:03:41;23.27;;;6.43;;
54947;SDS011;41113;41.882;12.530;2023-01-10T04:06:07;21.13;;;6.07;;
54947;SDS011;41113;41.882;12.530;2023-01-10T04:08:32;18.58;;;6.22;;
54947;SDS011;41113;41.882;12.530;2023-01-10T04:10:57;20.58;;;5.22;;
54947;SDS011;41113;41.882;12.530;2023-01-10T04:13:23;19.90;;;5.03;;
54947;SDS011;41113;41.882;12.530;2023-01-10T04:15:48;16.38;;;5.20;;
54947;SDS011;41113;41.882;12.530;2023-01-10T04:18:15;20.83;;;4.82;;
54947;SDS011;41113;41.882;12.530;2023-01-10T04:20:40;21.65;;;5.50;;
54947;SDS011;41113;41.882;12.530;2023-01-10T04:23:06;17.60;;;4.55;;
54947;SDS011;41113;41.882;12.530;2023-01-10T04:25:31;22.80;;;4.72;;
54947;SDS011;41113;41.882;12.530;2023-01-10T04:27:57;22.20;;;4.05;;
54947;SDS011;41113;41.882;12.530;2023-01-10T04:30:23;22.92;;;4.40;;
54947;SDS011;41113;41.882;12.530;2023-01-10T04:32:48;25.52;;;4.47;;
54947;SDS011;41113;41.882;12.530;2023-01-10T04:35:14;19.02;;;4.65;;
54947;SDS011;41113;41.882;12.530;2023-01-10T04:37:39;15.52;;;4.15;;
54947;SDS011;41113;41.882;12.530;2023-01-10T04:40:05;15.52;;;3.95;;
54947;SDS011;41113;41.882;12.530;2023-01-10T04:42:31;16.00;;;4.30;;
54947;SDS011;41113;41.882;12.530;2023-01-10T04:44:56;16.23;;;4.00;;
54947;SDS011;41113;41.882;12.530;2023-01-10T04:47:21;17.08;;;4.28;;
54947;SDS011;41113;41.882;12.530;2023-01-10T04:49:47;13.60;;;3.75;;
54947;SDS011;41113;41.882;12.530;2023-01-10T04:52:12;18.70;;;3.88;;
54947;SDS011;41113;41.882;12.530;2023-01-10T04:54:38;18.80;;;3.88;;
54947;SDS011;41113;41.882;12.530;2023-01-10T04:57:03;20.10;;;4.40;;
54947;SDS011;41113;41.882;12.530;2023-01-10T04:59:30;20.55;;;4.82;;
54947;SDS011;41113;41.882;12.530;2023-01-10T05:01:56;19.85;;;4.97;;
54947;SDS011;41113;41.882;12.530;2023-01-10T05:04:22;20.83;;;4.85;;
54947;SDS011;41113;41.882;12.530;2023-01-10T05:06:47;21.42;;;5.43;;
54947;SDS011;41113;41.882;12.530;2023-01-10T05:09:13;18.48;;;5.25;;
54947;SDS011;41113;41.882;12.530;2023-01-10T05:11:38;14.68;;;4.63;;
54947;SDS011;41113;41.882;12.530;2023-01-10T05:14:04;18.30;;;4.97;;
54947;SDS011;41113;41.882;12.530;2023-01-10T05:16:30;17.45;;;6.30;;
54947;SDS011;41113;41.882;12.530;2023-01-10T05:18:55;22.45;;;5.97;;
54947;SDS011;41113;41.882;12.530;2023-01-10T05:21:20;23.48;;;7.18;;
54947;SDS011;41113;41.882;12.530;2023-01-10T05:23:46;19.05;;;6.28;;
54947;SDS011;41113;41.882;12.530;2023-01-10T05:26:13;21.98;;;5.90;;
54947;SDS011;41113;41.882;12.530;2023-01-10T05:28:40;21.38;;;5.75;;
54947;SDS011;41113;41.882;12.530;2023-01-10T05:31:07;22.27;;;5.28;;
54947;SDS011;41113;41.882;12.530;2023-01-10T05:33:33;19.45;;;5.05;;
54947;SDS011;41113;41.882;12.530;2023-01-10T05:36:02;15.88;;;4.85;;
54947;SDS011;41113;41.882;12.530;2023-01-10T05:38:29;17.40;;;5.65;;
54947;SDS011;41113;41.882;12.530;2023-01-10T05:40:55;14.25;;;4.25;;
54947;SDS011;41113;41.882;12.530;2023-01-10T05:43:24;12.77;;;3.80;;
54947;SDS011;41113;41.882;12.530;2023-01-10T05:45:51;11.43;;;3.40;;
54947;SDS011;41113;41.882;12.530;2023-01-10T05:48:17;13.68;;;3.50;;
54947;SDS011;41113;41.882;12.530;2023-01-10T05:50:43;15.52;;;3.85;;
54947;SDS011;41113;41.882;12.530;2023-01-10T05:53:09;13.95;;;3.70;;
54947;SDS011;41113;41.882;12.530;2023-01-10T05:55:34;15.18;;;3.10;;
54947;SDS011;41113;41.882;12.530;2023-01-10T05:57:59;10.85;;;2.53;;
54947;SDS011;41113;41.882;12.530;2023-01-10T06:00:25;12.07;;;3.20;;
54947;SDS011;41113;41.882;12.530;2023-01-10T06:02:54;12.02;;;3.03;;
54947;SDS011;41113;41.882;12.530;2023-01-10T06:05:20;11.43;;;2.70;;
54947;SDS011;41113;41.882;12.530;2023-01-10T06:07:47;10.73;;;2.65;;
54947;SDS011;41113;41.882;12.530;2023-01-10T06:10:13;10.70;;;3.00;;
54947;SDS011;41113;41.882;12.530;2023-01-10T06:12:38;14.48;;;2.80;;
54947;SDS011;41113;41.882;12.530;2023-01-10T06:15:04;12.00;;;2.78;;
54947;SDS011;41113;41.882;12.530;2023-01-10T06:17:31;9.50;;;2.67;;
54947;SDS011;41113;41.882;12.530;2023-01-10T06:19:56;9.82;;;2.60;;
54947;SDS011;41113;41.882;12.530;2023-01-10T06:22:22;11.95;;;2.83;;
54947;SDS011;41113;41.882;12.530;2023-01-10T06:24:47;12.13;;;3.00;;
54947;SDS011;41113;41.882;12.530;2023-01-10T06:27:13;9.70;;;2.47;;
54947;SDS011;41113;41.882;12.530;2023-01-10T06:29:38;10.90;;;3.10;;
54947;SDS011;41113;41.882;12.530;2023-01-10T06:32:03;8.13;;;2.40;;
54947;SDS011;41113;41.882;12.530;2023-01-10T06:34:29;9.32;;;2.75;;
54947;SDS011;41113;41.882;12.530;2023-01-10T06:36:54;8.68;;;2.28;;
54947;SDS011;41113;41.882;12.530;2023-01-10T06:39:19;9.32;;;2.53;;
54947;SDS011;41113;41.882;12.530;2023-01-10T06:41:45;10.68;;;3.13;;
54947;SDS011;41113;41.882;12.530;2023-01-10T06:44:10;10.82;;;2.92;;
54947;SDS011;41113;41.882;12.530;2023-01-10T06:46:35;8.63;;;2.67;;
54947;SDS011;41113;41.882;12.530;2023-01-10T06:49:01;12.85;;;2.72;;
54947;SDS011;41113;41.882;12.530;2023-01-10T06:51:26;10.90;;;2.45;;
54947;SDS011;41113;41.882;12.530;2023-01-10T06:53:52;13.23;;;3.17;;
54947;SDS011;41113;41.882;12.530;2023-01-10T06:56:17;10.30;;;2.80;;
54947;SDS011;41113;41.882;12.530;2023-01-10T06:58:42;12.55;;;3.35;;
54947;SDS011;41113;41.882;12.530;2023-01-10T07:01:12;10.55;;;3.47;;
54947;SDS011;41113;41.882;12.530;2023-01-10T07:03:39;11.20;;;3.42;;
54947;SDS011;41113;41.882;12.530;2023-01-10T07:06:04;15.05;;;3.90;;
54947;SDS011;41113;41.882;12.530;2023-01-10T07:08:34;11.30;;;3.58;;
54947;SDS011;41113;41.882;12.530;2023-01-10T07:11:07;14.60;;;3.70;;
54947;SDS011;41113;41.882;12.530;2023-01-10T07:13:33;8.93;;;3.08;;
54947;SDS011;41113;41.882;12.530;2023-01-10T07:16:00;13.55;;;3.30;;
54947;SDS011;41113;41.882;12.530;2023-01-10T07:18:26;12.82;;;3.53;;
54947;SDS011;41113;41.882;12.530;2023-01-10T07:20:52;7.82;;;2.97;;
54947;SDS011;41113;41.882;12.530;2023-01-10T07:23:17;11.73;;;3.08;;
54947;SDS011;41113;41.882;12.530;2023-01-10T07:25:43;9.85;;;3.80;;
54947;SDS011;41113;41.882;12.530;2023-01-10T07:28:08;11.82;;;3.10;;
54947;SDS011;41113;41.882;12.530;2023-01-10T07:30:34;9.27;;;3.30;;
54947;SDS011;41113;41.882;12.530;2023-01-10T07:32:59;8.75;;;2.50;;
54947;SDS011;41113;41.882;12.530;2023-01-10T07:35:27;8.45;;;2.50;;
54947;SDS011;41113;41.882;12.530;2023-01-10T07:37:56;9.90;;;2.78;;
54947;SDS011;41113;41.882;12.530;2023-01-10T07:40:22;11.00;;;3.15;;
54947;SDS011;41113;41.882;12.530;2023-01-10T07:42:47;9.35;;;2.20;;
54947;SDS011;41113;41.882;12.530;2023-01-10T07:45:14;9.63;;;2.53;;
54947;SDS011;41113;41.882;12.530;2023-01-10T07:47:39;9.27;;;2.63;;
54947;SDS011;41113;41.882;12.530;2023-01-10T07:50:05;10.82;;;2.30;;
54947;SDS011;41113;41.882;12.530;2023-01-10T07:52:31;8.43;;;2.28;;
54947;SDS011;41113;41.882;12.530;2023-01-10T07:54:57;7.22;;;1.90;;
54947;SDS011;41113;41.882;12.530;2023-01-10T07:57:22;10.18;;;2.17;;
54947;SDS011;41113;41.882;12.530;2023-01-10T07:59:48;7.70;;;2.28;;
54947;SDS011;41113;41.882;12.530;2023-01-10T08:02:13;8.15;;;2.17;;
54947;SDS011;41113;41.882;12.530;2023-01-10T08:04:39;9.45;;;2.83;;
54947;SDS011;41113;41.882;12.530;2023-01-10T08:07:04;10.75;;;2.70;;
54947;SDS011;41113;41.882;12.530;2023-01-10T08:09:29;10.23;;;2.60;;
54947;SDS011;41113;41.882;12.530;2023-01-10T08:11:55;9.38;;;2.50;;
54947;SDS011;41113;41.882;12.530;2023-01-10T08:14:20;7.57;;;2.10;;
54947;SDS011;41113;41.882;12.530;2023-01-10T08:16:46;7.40;;;1.90;;
54947;SDS011;41113;41.882;12.530;2023-01-10T08:19:11;6.22;;;2.13;;
54947;SDS011;41113;41.882;12.530;2023-01-10T08:21:40;8.52;;;2.05;;
54947;SDS011;41113;41.882;12.530;2023-01-10T08:24:06;6.43;;;2.05;;
54947;SDS011;41113;41.882;12.530;2023-01-10T08:26:31;9.80;;;2.10;;
54947;SDS011;41113;41.882;12.530;2023-01-10T08:29:00;8.07;;;2.20;;
54947;SDS011;41113;41.882;12.530;2023-01-10T08:31:25;6.32;;;2.00;;
54947;SDS011;41113;41.882;12.530;2023-01-10T08:33:51;10.82;;;2.45;;
54947;SDS011;41113;41.882;12.530;2023-01-10T08:36:17;7.35;;;2.05;;
54947;SDS011;41113;41.882;12.530;2023-01-10T08:38:44;8.55;;;2.10;;
54947;SDS011;41113;41.882;12.530;2023-01-10T08:41:10;8.10;;;2.22;;
54947;SDS011;41113;41.882;12.530;2023-01-10T08:43:36;9.27;;;2.53;;
54947;SDS011;41113;41.882;12.530;2023-01-10T08:46:01;9.63;;;2.03;;
54947;SDS011;41113;41.882;12.530;2023-01-10T08:48:27;6.35;;;2.08;;
54947;SDS011;41113;41.882;12.530;2023-01-10T08:50:52;8.80;;;2.13;;
54947;SDS011;41113;41.882;12.530;2023-01-10T08:53:17;7.82;;;2.22;;
54947;SDS011;41113;41.882;12.530;2023-01-10T08:55:43;9.95;;;2.30;;
54947;SDS011;41113;41.882;12.530;2023-01-10T08:58:08;10.38;;;2.10;;
54947;SDS011;41113;41.882;12.530;2023-01-10T09:00:34;5.47;;;1.58;;
54947;SDS011;41113;41.882;12.530;2023-01-10T09:02:59;4.97;;;1.80;;
54947;SDS011;41113;41.882;12.530;2023-01-10T09:05:24;5.35;;;1.63;;
54947;SDS011;41113;41.882;12.530;2023-01-10T09:07:50;8.95;;;1.80;;
54947;SDS011;41113;41.882;12.530;2023-01-10T09:10:16;6.57;;;1.83;;
54947;SDS011;41113;41.882;12.530;2023-01-10T09:12:41;10.20;;;1.95;;
54947;SDS011;41113;41.882;12.530;2023-01-10T09:15:19;9.68;;;2.10;;
54947;SDS011;41113;41.882;12.530;2023-01-10T09:17:51;7.78;;;2.00;;
54947;SDS011;41113;41.882;12.530;2023-01-10T09:20:18;6.85;;;1.70;;
54947;SDS011;41113;41.882;12.530;2023-01-10T09:22:44;5.45;;;1.30;;
54947;SDS011;41113;41.882;12.530;2023-01-10T09:25:09;6.05;;;1.55;;
54947;SDS011;41113;41.882;12.530;2023-01-10T09:27:35;8.30;;;1.60;;
54947;SDS011;41113;41.882;12.530;2023-01-10T09:30:00;7.25;;;1.50;;
54947;SDS011;41113;41.882;12.530;2023-01-10T09:32:26;4.53;;;1.63;;
54947;SDS011;41113;41.882;12.530;2023-01-10T09:34:51;6.35;;;1.85;;
54947;SDS011;41113;41.882;12.530;2023-01-10T09:37:17;5.95;;;1.55;;
54947;SDS011;41113;41.882;12.530;2023-01-10T09:39:42;4.65;;;1.40;;
54947;SDS011;41113;41.882;12.530;2023-01-10T09:50:17;6.97;;;1.55;;
54947;SDS011;41113;41.882;12.530;2023-01-10T09:52:46;3.35;;;1.20;;
54947;SDS011;41113;41.882;12.530;2023-01-10T09:55:19;6.05;;;1.30;;
54947;SDS011;41113;41.882;12.530;2023-01-10T09:57:50;4.30;;;1.48;;
54947;SDS011;41113;41.882;12.530;2023-01-10T10:00:20;9.20;;;1.92;;
54947;SDS011;41113;41.882;12.530;2023-01-10T10:02:52;5.60;;;1.30;;
54947;SDS011;41113;41.882;12.530;2023-01-10T10:07:53;8.75;;;1.73;;
54947;SDS011;41113;41.882;12.530;2023-01-10T10:10:23;4.10;;;1.38;;
54947;SDS011;41113;41.882;12.530;2023-01-10T10:15:49;4.65;;;1.38;;
54947;SDS011;41113;41.882;12.530;2023-01-10T10:18:43;6.80;;;1.60;;
54947;SDS011;41113;41.882;12.530;2023-01-10T10:26:49;6.93;;;1.50;;
54947;SDS011;41113;41.882;12.530;2023-01-10T10:34:29;5.25;;;1.50;;
54947;SDS011;41113;41.882;12.530;2023-01-10T10:37:11;4.65;;;1.35;;
54947;SDS011;41113;41.882;12.530;2023-01-10T10:39:51;4.55;;;1.00;;
54947;SDS011;41113;41.882;12.530;2023-01-10T10:42:20;3.75;;;1.13;;
54947;SDS011;41113;41.882;12.530;2023-01-10T10:44:53;2.47;;;1.00;;
54947;SDS011;41113;41.882;12.530;2023-01-10T10:47:25;4.63;;;1.30;;
54947;SDS011;41113;41.882;12.530;2023-01-10T10:49:57;3.65;;;1.27;;
54947;SDS011;41113;41.882;12.530;2023-01-10T10:52:31;3.22;;;1.00;;
54947;SDS011;41113;41.882;12.530;2023-01-10T10:54:59;2.25;;;1.00;;
54947;SDS011;41113;41.882;12.530;2023-01-10T10:57:28;3.03;;;1.00;;
54947;SDS011;41113;41.882;12.530;2023-01-10T10:59:55;3.70;;;1.10;;
54947;SDS011;41113;41.882;12.530;2023-01-10T11:02:23;2.40;;;1.00;;
54947;SDS011;41113;41.882;12.530;2023-01-10T11:04:50;3.47;;;1.10;;
54947;SDS011;41113;41.882;12.530;2023-01-10T11:07:19;4.50;;;1.30;;
54947;SDS011;41113;41.882;12.530;2023-01-10T11:09:45;3.35;;;0.98;;
54947;SDS011;41113;41.882;12.530;2023-01-10T11:12:18;3.45;;;1.20;;
54947;SDS011;41113;41.882;12.530;2023-01-10T11:14:49;4.10;;;1.30;;
54947;SDS011;41113;41.882;12.530;2023-01-10T11:17:20;5.05;;;1.38;;
54947;SDS011;41113;41.882;12.530;2023-01-10T11:22:22;2.03;;;1.00;;
54947;SDS011;41113;41.882;12.530;2023-01-10T11:24:53;3.28;;;1.08;;
54947;SDS011;41113;41.882;12.530;2023-01-10T11:27:25;4.00;;;1.10;;
54947;SDS011;41113;41.882;12.530;2023-01-10T11:30:00;2.55;;;1.00;;
54947;SDS011;41113;41.882;12.530;2023-01-10T11:32:30;3.67;;;1.20;;
54947;SDS011;41113;41.882;12.530;2023-01-10T11:34:59;4.60;;;1.40;;
54947;SDS011;41113;41.882;12.530;2023-01-10T11:37:30;2.58;;;1.10;;
54947;SDS011;41113;41.882;12.530;2023-01-10T11:42:40;4.00;;;1.08;;
54947;SDS011;41113;41.882;12.530;2023-01-10T11:45:18;3.65;;;1.17;;
54947;SDS011;41113;41.882;12.530;2023-01-10T11:50:28;5.18;;;1.27;;
54947;SDS011;41113;41.882;12.530;2023-01-10T11:52:57;7.57;;;2.28;;
54947;SDS011;41113;41.882;12.530;2023-01-10T11:55:24;6.97;;;1.63;;
54947;SDS011;41113;41.882;12.530;2023-01-10T11:57:59;4.05;;;1.55;;
54947;SDS011;41113;41.882;12.530;2023-01-10T12:05:53;7.10;;;1.55;;
54947;SDS011;41113;41.882;12.530;2023-01-10T12:08:24;5.72;;;1.20;;
54947;SDS011;41113;41.882;12.530;2023-01-10T12:11:00;7.97;;;1.67;;
54947;SDS011;41113;41.882;12.530;2023-01-10T12:13:41;4.60;;;1.35;;
54947;SDS011;41113;41.882;12.530;2023-01-10T12:18:50;5.18;;;1.40;;
54947;SDS011;41113;41.882;12.530;2023-01-10T12:21:22;4.72;;;1.25;;
54947;SDS011;41113;41.882;12.530;2023-01-10T12:26:47;3.30;;;1.27;;
54947;SDS011;41113;41.882;12.530;2023-01-10T12:29:15;7.35;;;1.50;;
54947;SDS011;41113;41.882;12.530;2023-01-10T12:31:43;9.53;;;2.07;;
54947;SDS011;41113;41.882;12.530;2023-01-10T12:34:12;6.43;;;1.83;;
54947;SDS011;41113;41.882;12.530;2023-01-10T12:39:17;5.40;;;1.77;;
54947;SDS011;41113;41.882;12.530;2023-01-10T12:44:45;7.68;;;2.70;;
54947;SDS011;41113;41.882;12.530;2023-01-10T12:49:51;7.80;;;1.83;;
54947;SDS011;41113;41.882;12.530;2023-01-10T12:55:13;5.45;;;1.73;;
54947;SDS011;41113;41.882;12.530;2023-01-10T12:57:39;5.25;;;1.38;;
54947;SDS011;41113;41.882;12.530;2023-01-10T13:00:14;3.33;;;1.25;;
54947;SDS011;41113;41.882;12.530;2023-01-10T13:02:45;5.38;;;1.50;;
54947;SDS011;41113;41.882;12.530;2023-01-10T13:05:14;4.68;;;1.25;;
54947;SDS011;41113;41.882;12.530;2023-01-10T13:07:43;4.82;;;1.30;;
54947;SDS011;41113;41.882;12.530;2023-01-10T13:10:13;6.07;;;1.30;;
54947;SDS011;41113;41.882;12.530;2023-01-10T13:12:43;4.95;;;1.27;;
54947;SDS011;41113;41.882;12.530;2023-01-10T13:17:48;7.70;;;2.22;;
54947;SDS011;41113;41.882;12.530;2023-01-10T13:22:51;4.20;;;1.20;;
54947;SDS011;41113;41.882;12.530;2023-01-10T13:25:30;5.97;;;1.30;;
54947;SDS011;41113;41.882;12.530;2023-01-10T13:28:03;3.55;;;1.30;;
54947;SDS011;41113;41.882;12.530;2023-01-10T13:30:32;6.65;;;1.40;;
54947;SDS011;41113;41.882;12.530;2023-01-10T13:33:06;4.75;;;1.30;;
54947;SDS011;41113;41.882;12.530;2023-01-10T13:35:49;3.17;;;1.17;;
54947;SDS011;41113;41.882;12.530;2023-01-10T13:38:18;4.13;;;1.08;;
54947;SDS011;41113;41.882;12.530;2023-01-10T13:40:59;3.33;;;1.00;;
54947;SDS011;41113;41.882;12.530;2023-01-10T13:48:41;3.80;;;1.20;;
54947;SDS011;41113;41.882;12.530;2023-01-10T13:51:27;3.70;;;1.27;;
54947;SDS011;41113;41.882;12.530;2023-01-10T13:54:00;3.47;;;1.20;;
54947;SDS011;41113;41.882;12.530;2023-01-10T13:58:52;4.38;;;1.38;;
54947;SDS011;41113;41.882;12.530;2023-01-10T14:01:36;5.35;;;1.67;;
54947;SDS011;41113;41.882;12.530;2023-01-10T14:04:22;4.70;;;1.25;;
54947;SDS011;41113;41.882;12.530;2023-01-10T14:06:54;5.85;;;1.70;;
54947;SDS011;41113;41.882;12.530;2023-01-10T14:11:51;5.20;;;1.65;;
54947;SDS011;41113;41.882;12.530;2023-01-10T14:14:20;9.02;;;2.17;;
54947;SDS011;41113;41.882;12.530;2023-01-10T14:16:51;8.43;;;3.10;;
54947;SDS011;41113;41.882;12.530;2023-01-10T14:19:30;7.82;;;2.53;;
54947;SDS011;41113;41.882;12.530;2023-01-10T14:24:37;5.30;;;1.40;;
54947;SDS011;41113;41.882;12.530;2023-01-10T14:27:05;3.90;;;1.20;;
54947;SDS011;41113;41.882;12.530;2023-01-10T14:29:37;5.43;;;1.42;;
54947;SDS011;41113;41.882;12.530;2023-01-10T14:32:30;4.95;;;1.48;;
54947;SDS011;41113;41.882;12.530;2023-01-10T14:34:59;4.00;;;1.10;;
54947;SDS011;41113;41.882;12.530;2023-01-10T14:37:27;4.80;;;1.50;;
54947;SDS011;41113;41.882;12.530;2023-01-10T14:39:56;4.25;;;1.20;;
54947;SDS011;41113;41.882;12.530;2023-01-10T14:42:23;3.13;;;1.23;;
54947;SDS011;41113;41.882;12.530;2023-01-10T14:45:02;3.43;;;1.00;;
54947;SDS011;41113;41.882;12.530;2023-01-10T14:50:21;5.55;;;1.50;;
54947;SDS011;41113;41.882;12.530;2023-01-10T14:52:47;4.88;;;1.50;;
54947;SDS011;41113;41.882;12.530;2023-01-10T14:55:13;3.85;;;1.33;;
54947;SDS011;41113;41.882;12.530;2023-01-10T14:57:52;6.93;;;1.50;;
54947;SDS011;41113;41.882;12.530;2023-01-10T15:00:22;4.68;;;1.50;;
54947;SDS011;41113;41.882;12.530;2023-01-10T15:02:51;4.32;;;1.40;;
54947;SDS011;41113;41.882;12.530;2023-01-10T15:05:21;3.60;;;1.50;;
54947;SDS011;41113;41.882;12.530;2023-01-10T15:07:52;5.10;;;1.60;;
54947;SDS011;41113;41.882;12.530;2023-01-10T15:10:29;5.50;;;1.50;;
54947;SDS011;41113;41.882;12.530;2023-01-10T15:12:58;5.07;;;1.50;;
54947;SDS011;41113;41.882;12.530;2023-01-10T15:15:30;4.55;;;1.30;;
54947;SDS011;41113;41.882;12.530;2023-01-10T15:17:58;4.45;;;1.48;;
54947;SDS011;41113;41.882;12.530;2023-01-10T15:20:26;4.60;;;1.33;;
54947;SDS011;41113;41.882;12.530;2023-01-10T15:22:54;5.22;;;1.40;;
54947;SDS011;41113;41.882;12.530;2023-01-10T15:27:52;5.82;;;1.50;;
54947;SDS011;41113;41.882;12.530;2023-01-10T15:30:19;5.25;;;1.42;;
54947;SDS011;41113;41.882;12.530;2023-01-10T15:32:48;5.10;;;1.45;;
54947;SDS011;41113;41.882;12.530;2023-01-10T15:35:16;5.32;;;1.50;;
54947;SDS011;41113;41.882;12.530;2023-01-10T15:37:44;3.88;;;1.20;;
54947;SDS011;41113;41.882;12.530;2023-01-10T15:40:19;5.30;;;1.52;;
54947;SDS011;41113;41.882;12.530;2023-01-10T15:42:47;7.50;;;1.60;;
54947;SDS011;41113;41.882;12.530;2023-01-10T15:45:16;5.10;;;1.40;;
54947;SDS011;41113;41.882;12.530;2023-01-10T15:50:26;5.55;;;1.60;;
54947;SDS011;41113;41.882;12.530;2023-01-10T15:52:59;5.32;;;1.70;;
54947;SDS011;41113;41.882;12.530;2023-01-10T16:00:47;7.78;;;1.73;;
54947;SDS011;41113;41.882;12.530;2023-01-10T16:06:03;4.70;;;1.60;;
54947;SDS011;41113;41.882;12.530;2023-01-10T16:08:34;10.13;;;1.83;;
54947;SDS011;41113;41.882;12.530;2023-01-10T16:11:06;6.65;;;1.45;;
54947;SDS011;41113;41.882;12.530;2023-01-10T16:13:33;6.82;;;1.65;;
54947;SDS011;41113;41.882;12.530;2023-01-10T16:16:01;6.00;;;1.63;;
54947;SDS011;41113;41.882;12.530;2023-01-10T16:18:29;5.82;;;1.70;;
54947;SDS011;41113;41.882;12.530;2023-01-10T16:20:56;7.50;;;2.13;;
54947;SDS011;41113;41.882;12.530;2023-01-10T16:23:25;5.70;;;1.75;;